Time;durP1;ratioP1;P1;durP2;ratioP2;P2;SDS_P1;SDS_P2;PMS_P1;PMS_P2;Temp;Humidity;BMP_temperature;BMP_pressure;BME280_temperature;BME280_humidity;BME280_pressure;Samples;Min_cycle;Max_cycle;Signal;HPM_P1;HPM_P2
2021/10/31 00:00:10;;;;;;;17.73;15.82;;;;;;;24.01;21.03;95029.38;5016025;28;20049;-48
2021/10/31 00:02:40;;;;;;;22.45;16.42;;;;;;;24.36;20.50;95029.97;5015570;28;20042;-48
2021/10/31 00:05:09;;;;;;;22.38;16.95;;;;;;;24.26;20.82;95027.88;5028084;28;20448;-52
2021/10/31 00:07:36;;;;;;;24.85;18.10;;;;;;;24.37;20.31;95020.81;5035423;28;20360;-63
2021/10/31 00:10:04;;;;;;;21.85;17.60;;;;;;;24.32;20.23;95021.13;5035887;28;20049;-49
2021/10/31 00:12:32;;;;;;;20.02;17.38;;;;;;;24.26;20.22;95017.19;5035941;28;20045;-52
2021/10/31 00:14:59;;;;;;;22.40;16.42;;;;;;;24.14;20.45;95025.38;5035154;28;20387;-49
2021/10/31 00:17:26;;;;;;;16.88;15.07;;;;;;;23.79;20.66;95020.19;5035054;28;20045;-48
2021/10/31 00:19:54;;;;;;;15.23;13.48;;;;;;;23.71;21.05;95024.66;5034867;28;20061;-47
2021/10/31 00:22:21;;;;;;;15.73;14.10;;;;;;;23.86;20.73;95021.09;5034739;28;20053;-47
2021/10/31 00:24:48;;;;;;;14.98;13.48;;;;;;;24.01;20.57;95018.69;5035073;28;20049;-48
2021/10/31 00:27:15;;;;;;;16.70;13.60;;;;;;;23.94;20.90;95019.31;5034594;28;20056;-48
2021/10/31 00:29:42;;;;;;;14.52;13.00;;;;;;;24.05;20.61;95024.84;5034968;28;20444;-49
2021/10/31 00:32:09;;;;;;;14.90;13.27;;;;;;;24.10;20.72;95021.88;5035116;28;20045;-49
2021/10/31 00:34:36;;;;;;;14.38;12.88;;;;;;;24.16;20.60;95013.19;5034909;28;20462;-48
2021/10/31 00:37:04;;;;;;;13.60;12.30;;;;;;;24.08;20.43;95011.56;5034648;28;20052;-49
2021/10/31 00:39:31;;;;;;;14.50;13.15;;;;;;;24.72;20.28;95011.78;5034809;28;20048;-50
2021/10/31 00:41:58;;;;;;;13.98;12.60;;;;;;;24.11;20.99;95016.19;5035103;28;20054;-48
2021/10/31 00:44:25;;;;;;;14.25;12.80;;;;;;;23.51;21.31;95015.06;5034612;28;20502;-55
2021/10/31 00:46:52;;;;;;;13.57;12.18;;;;;;;23.61;21.13;95009.97;5033891;28;20056;-49
2021/10/31 00:49:20;;;;;;;22.65;20.25;;;;;;;23.83;21.01;95016.47;5034809;28;20045;-52
2021/10/31 00:51:47;;;;;;;59.53;53.17;;;;;;;23.80;20.97;95014.50;5033855;28;20053;-47
2021/10/31 00:54:14;;;;;;;23.55;21.10;;;;;;;23.85;21.00;95019.53;5033393;28;20053;-49
2021/10/31 00:56:42;;;;;;;17.25;15.02;;;;;;;23.94;21.01;95017.44;5034283;28;20037;-47
2021/10/31 00:59:09;;;;;;;16.30;14.65;;;;;;;23.61;21.50;95017.97;5033602;28;20080;-48
2021/10/31 01:01:37;;;;;;;15.32;13.77;;;;;;;23.87;21.06;95011.19;5033865;28;20053;-47
2021/10/31 01:04:04;;;;;;;15.18;13.57;;;;;;;24.18;21.38;95002.94;5034345;28;20057;-49
2021/10/31 01:06:55;;;;;;;14.35;12.95;;;;;;;23.89;20.68;95000.91;5034285;28;20049;-49
2021/10/31 01:09:58;;;;;;;14.02;12.63;;;;;;;23.71;20.85;95008.63;5033380;28;20050;-48
2021/10/31 01:12:44;;;;;;;14.85;12.48;;;;;;;23.76;20.95;95000.31;5033394;28;20053;-48
2021/10/31 01:15:44;;;;;;;12.75;11.55;;;;;;;23.79;21.01;94999.63;5034064;28;20079;-50
2021/10/31 01:18:35;;;;;;;13.32;11.93;;;;;;;23.76;20.79;95011.00;5034210;28;20056;-47
2021/10/31 01:21:28;;;;;;;12.60;11.40;;;;;;;23.55;20.87;95002.56;5033715;28;20451;-52
2021/10/31 01:24:17;;;;;;;12.77;11.48;;;;;;;23.83;20.55;95000.44;5054458;28;20057;-51
2021/10/31 01:27:08;;;;;;;13.20;11.57;;;;;;;23.84;20.50;94996.66;5014486;28;20057;-53
2021/10/31 01:30:01;;;;;;;12.55;11.25;;;;;;;23.76;20.41;94992.31;5019645;28;20466;-48
2021/10/31 01:32:40;;;;;;;13.48;11.77;;;;;;;23.48;20.58;94995.22;5034056;28;20045;-48
2021/10/31 01:35:19;;;;;;;13.38;12.02;;;;;;;23.45;21.07;94995.16;5033914;28;20041;-55
2021/10/31 01:37:57;;;;;;;13.43;12.05;;;;;;;23.42;21.28;94991.28;5034325;28;20048;-49
2021/10/31 01:40:59;;;;;;;13.10;11.88;;;;;;;23.64;21.08;94997.81;5032798;28;20076;-47
2021/10/31 01:43:31;;;;;;;13.48;12.25;;;;;;;23.63;21.04;94985.59;5033189;28;20045;-51
2021/10/31 01:46:18;;;;;;;13.45;12.05;;;;;;;23.31;20.83;94985.72;5033918;28;20041;-50
2021/10/31 01:49:20;;;;;;;13.85;12.45;;;;;;;23.80;20.69;94987.03;5033885;28;20053;-50
2021/10/31 01:51:54;;;;;;;14.20;12.50;;;;;;;23.68;20.74;94982.63;5033482;28;20053;-54
2021/10/31 01:54:28;;;;;;;13.43;12.02;;;;;;;23.68;20.62;94977.28;5033864;28;20448;-49
2021/10/31 01:56:59;;;;;;;14.30;12.80;;;;;;;23.22;21.14;94977.19;5032718;28;20367;-48
2021/10/31 01:59:33;;;;;;;14.10;12.70;;;;;;;23.41;21.23;94980.94;5032536;28;20371;-49
2021/10/31 02:02:04;;;;;;;13.27;12.07;;;;;;;23.15;21.32;94977.03;5034603;28;20062;-48
2021/10/31 02:04:33;;;;;;;14.32;12.93;;;;;;;23.42;21.28;94974.47;5036632;28;20046;-47
2021/10/31 02:07:01;;;;;;;14.55;13.05;;;;;;;23.89;20.78;94976.88;5037786;28;20371;-47
2021/10/31 02:09:32;;;;;;;14.93;13.52;;;;;;;23.42;21.06;94969.94;5037428;28;20049;-55
2021/10/31 02:12:01;;;;;;;14.73;13.35;;;;;;;23.35;21.26;94975.13;5036554;28;20061;-48
2021/10/31 02:14:28;;;;;;;14.93;13.45;;;;;;;23.42;21.28;94969.16;5037641;28;20045;-47
2021/10/31 02:16:56;;;;;;;15.48;13.80;;;;;;;23.36;21.00;94963.34;5036700;28;20044;-50
2021/10/31 02:19:36;;;;;;;15.65;14.07;;;;;;;23.59;20.84;94966.06;5036243;28;20049;-48
2021/10/31 02:22:05;;;;;;;16.08;14.55;;;;;;;23.59;20.92;94968.75;5036244;28;20053;-49
2021/10/31 02:24:33;;;;;;;16.92;15.23;;;;;;;23.47;21.21;94969.66;5035565;28;20042;-52
2021/10/31 02:27:09;;;;;;;16.38;14.80;;;;;;;23.55;21.17;94967.88;5037267;28;20045;-47
2021/10/31 02:29:45;;;;;;;16.75;15.05;;;;;;;23.47;21.54;94966.22;5037188;28;20056;-48
2021/10/31 02:32:13;;;;;;;17.73;15.90;;;;;;;23.64;21.14;94955.09;5037277;28;20053;-48
2021/10/31 02:34:40;;;;;;;15.73;14.13;;;;;;;23.96;21.70;94963.69;5037108;28;20049;-49
2021/10/31 02:37:07;;;;;;;15.57;14.07;;;;;;;24.27;22.05;94959.97;5037411;28;20042;-50
2021/10/31 02:39:34;;;;;;;16.67;15.02;;;;;;;23.49;21.70;94969.31;5022077;28;20053;-48
2021/10/31 02:42:03;;;;;;;17.20;15.52;;;;;;;23.54;21.85;94966.34;5037536;28;20079;-50
2021/10/31 02:44:30;;;;;;;16.63;14.93;;;;;;;23.90;21.30;94957.06;5036913;28;20048;-48
2021/10/31 02:46:58;;;;;;;17.23;15.63;;;;;;;23.54;21.69;94955.66;5036864;28;20052;-50
2021/10/31 02:49:26;;;;;;;19.25;17.40;;;;;;;23.50;21.68;94954.84;5036730;28;20041;-48
2021/10/31 02:52:02;;;;;;;19.10;17.10;;;;;;;23.72;21.42;94956.03;5035520;28;20049;-49
2021/10/31 02:54:42;;;;;;;16.63;15.02;;;;;;;23.96;21.18;94950.31;5033959;28;20053;-57
2021/10/31 02:57:17;;;;;;;15.80;14.20;;;;;;;23.86;21.23;94951.69;5037098;28;20074;-48
2021/10/31 02:59:49;;;;;;;15.90;14.25;;;;;;;23.73;21.53;94953.00;5036658;28;20345;-49
2021/10/31 03:02:17;;;;;;;15.75;14.15;;;;;;;23.51;21.43;94948.38;5035579;28;20060;-47
2021/10/31 03:04:45;;;;;;;15.15;13.73;;;;;;;23.55;21.73;94951.88;5035403;28;20049;-50
2021/10/31 03:07:13;;;;;;;16.00;14.18;;;;;;;23.49;21.88;94951.41;5036629;28;20076;-48
2021/10/31 03:09:40;;;;;;;16.08;14.27;;;;;;;23.61;21.65;94958.47;5034980;28;20041;-56
2021/10/31 03:12:09;;;;;;;16.23;14.52;;;;;;;23.64;21.59;94949.75;5036433;28;20049;-48
2021/10/31 03:14:36;;;;;;;14.98;13.57;;;;;;;23.63;21.57;94953.56;5035478;28;20049;-51
2021/10/31 03:17:05;;;;;;;14.98;13.57;;;;;;;23.74;21.84;94954.53;5035617;28;20473;-49
2021/10/31 03:19:32;;;;;;;15.05;13.57;;;;;;;23.72;21.67;94956.78;5036237;28;20482;-52
2021/10/31 03:22:00;;;;;;;15.88;14.27;;;;;;;23.92;21.58;94952.91;5035934;28;20053;-51
2021/10/31 03:24:27;;;;;;;17.88;16.13;;;;;;;23.96;21.49;94945.75;5035072;28;20052;-49
2021/10/31 03:26:54;;;;;;;17.67;15.88;;;;;;;23.99;21.24;94950.38;5036045;28;20045;-50
2021/10/31 03:29:22;;;;;;;17.52;15.77;;;;;;;23.63;21.47;94953.56;5023089;28;20049;-48
2021/10/31 03:31:49;;;;;;;18.13;16.20;;;;;;;23.78;21.53;94944.69;5016259;28;20057;-48
2021/10/31 03:34:16;;;;;;;17.45;15.77;;;;;;;24.11;21.32;94951.31;5016561;28;20045;-49
2021/10/31 03:36:44;;;;;;;16.38;14.75;;;;;;;24.39;20.66;94951.00;5030355;28;20364;-49
2021/10/31 03:39:11;;;;;;;16.42;14.63;;;;;;;24.15;21.33;94952.13;5036619;28;20037;-48
2021/10/31 03:41:38;;;;;;;17.00;15.20;;;;;;;24.14;21.31;94955.94;5036367;28;20049;-50
2021/10/31 03:44:05;;;;;;;14.68;13.18;;;;;;;24.05;21.46;94961.53;5036432;28;20371;-48
2021/10/31 03:46:32;;;;;;;16.17;14.48;;;;;;;23.99;21.59;94955.72;5035015;28;20072;-50
2021/10/31 03:49:00;;;;;;;14.63;13.23;;;;;;;23.96;21.42;94956.44;5035769;28;20048;-48
2021/10/31 03:51:27;;;;;;;14.35;12.70;;;;;;;23.81;21.79;94954.66;5035774;28;20047;-48
2021/10/31 03:53:54;;;;;;;14.60;13.00;;;;;;;23.84;21.86;94948.59;5035025;28;20379;-49
2021/10/31 03:56:21;;;;;;;15.05;13.55;;;;;;;23.93;21.63;94951.78;5035569;28;20046;-59
2021/10/31 03:58:48;;;;;;;14.98;13.38;;;;;;;24.24;21.03;94944.66;5035692;28;20041;-54
2021/10/31 04:01:15;;;;;;;15.45;13.88;;;;;;;24.04;21.42;94943.19;5035764;28;20494;-54
2021/10/31 04:03:44;;;;;;;15.85;14.02;;;;;;;24.16;21.12;94943.00;5035658;28;20041;-48
2021/10/31 04:06:14;;;;;;;15.30;13.73;;;;;;;24.22;21.24;94945.03;5035349;28;20046;-50
2021/10/31 04:08:41;;;;;;;14.85;13.32;;;;;;;24.25;20.99;94946.19;5034839;28;20364;-48
2021/10/31 04:11:09;;;;;;;17.05;14.45;;;;;;;23.89;21.36;94940.28;5035530;28;20045;-47
2021/10/31 04:13:36;;;;;;;15.38;13.88;;;;;;;23.96;21.56;94935.06;5035487;28;20057;-50
2021/10/31 04:16:04;;;;;;;15.20;13.70;;;;;;;23.95;21.54;94938.88;5035109;28;20060;-50
2021/10/31 04:18:31;;;;;;;15.85;14.13;;;;;;;24.01;21.43;94949.25;5035147;28;20048;-48
2021/10/31 04:20:58;;;;;;;16.10;14.50;;;;;;;24.04;21.47;94945.88;5035336;28;20052;-49
2021/10/31 04:23:27;;;;;;;16.20;14.60;;;;;;;24.06;21.24;94941.72;5035740;28;20387;-50
2021/10/31 04:25:54;;;;;;;15.10;13.50;;;;;;;23.93;21.75;94941.09;5034764;28;20053;-49
2021/10/31 04:28:21;;;;;;;15.35;13.82;;;;;;;24.28;21.38;94938.25;5034920;28;20748;-51
2021/10/31 04:30:48;;;;;;;15.00;13.50;;;;;;;23.95;21.56;94943.44;5035215;28;20049;-49
2021/10/31 04:33:15;;;;;;;15.30;13.68;;;;;;;23.89;21.56;94934.16;5034885;28;20372;-50
2021/10/31 04:35:42;;;;;;;14.90;13.40;;;;;;;24.14;21.49;94934.56;5034019;28;20045;-48
2021/10/31 04:38:13;;;;;;;14.98;13.43;;;;;;;24.20;21.48;94933.13;5034798;28;20046;-51
2021/10/31 04:40:41;;;;;;;16.27;14.60;;;;;;;24.49;20.72;94924.44;5034992;28;20048;-50
2021/10/31 04:43:12;;;;;;;16.67;14.98;;;;;;;23.58;22.12;94930.59;5034953;28;20041;-50
2021/10/31 04:45:42;;;;;;;18.13;16.33;;;;;;;23.84;21.99;94929.13;5034523;28;20056;-49
2021/10/31 04:48:11;;;;;;;17.38;15.75;;;;;;;23.76;22.00;94925.59;5035443;28;20056;-49
2021/10/31 04:50:38;;;;;;;17.75;16.05;;;;;;;23.76;21.97;94922.91;5032480;28;20878;-52
2021/10/31 04:53:07;;;;;;;19.15;17.17;;;;;;;23.76;21.90;94920.25;5032591;28;20068;-49
2021/10/31 04:55:38;;;;;;;18.48;16.70;;;;;;;23.90;21.94;94923.13;5033767;28;20371;-51
2021/10/31 04:58:06;;;;;;;18.67;16.88;;;;;;;23.26;22.50;94919.34;5037743;28;20045;-51
2021/10/31 05:00:33;;;;;;;18.88;16.83;;;;;;;23.56;22.20;94921.41;5035067;28;20049;-49
2021/10/31 05:03:01;;;;;;;18.08;16.25;;;;;;;23.68;22.07;94908.69;5034578;28;20060;-55
2021/10/31 05:05:28;;;;;;;18.88;17.15;;;;;;;23.67;21.99;94906.34;5033700;28;20049;-49
2021/10/31 05:07:56;;;;;;;18.85;17.02;;;;;;;23.50;22.12;94915.59;5034205;28;20725;-48
2021/10/31 05:10:25;;;;;;;18.73;16.73;;;;;;;23.68;22.02;94914.03;5034828;28;20053;-48
2021/10/31 05:12:53;;;;;;;17.67;15.90;;;;;;;23.59;22.03;94904.69;5034223;28;20045;-48
2021/10/31 05:15:20;;;;;;;18.25;16.52;;;;;;;23.20;22.63;94910.09;5033014;28;20444;-49
2021/10/31 05:17:49;;;;;;;18.98;17.17;;;;;;;23.59;22.25;94915.38;5021061;28;20048;-48
2021/10/31 05:20:17;;;;;;;18.67;16.98;;;;;;;23.52;22.38;94925.91;5034222;28;20060;-50
2021/10/31 05:22:44;;;;;;;18.35;16.65;;;;;;;23.72;22.27;94924.75;5033944;28;20057;-49
2021/10/31 05:25:11;;;;;;;18.50;16.60;;;;;;;23.55;22.54;94925.19;5033948;28;20055;-48
2021/10/31 05:27:39;;;;;;;18.08;16.27;;;;;;;23.61;22.40;94923.78;5034255;28;20056;-47
2021/10/31 05:30:08;;;;;;;19.50;17.58;;;;;;;23.62;22.21;94920.75;5034283;28;20332;-54
2021/10/31 05:32:37;;;;;;;19.30;16.60;;;;;;;23.77;21.90;94916.44;5033059;28;20065;-50
2021/10/31 05:35:05;;;;;;;19.42;17.40;;;;;;;23.80;22.31;94922.97;5033680;28;20056;-48
2021/10/31 05:37:35;;;;;;;25.38;22.88;;;;;;;24.10;21.74;94928.41;5033154;28;20045;-47
2021/10/31 05:40:04;;;;;;;29.90;26.98;;;;;;;24.21;21.71;94921.34;5031405;28;20444;-49
2021/10/31 05:42:31;;;;;;;30.50;27.60;;;;;;;24.02;21.75;94926.75;5033762;28;20045;-51
2021/10/31 05:44:58;;;;;;;32.63;29.58;;;;;;;23.79;22.30;94924.88;5033622;28;20060;-48
2021/10/31 05:47:26;;;;;;;24.90;22.50;;;;;;;23.95;22.04;94928.19;5033972;28;20448;-47
2021/10/31 05:49:53;;;;;;;24.15;21.75;;;;;;;23.75;22.19;94921.38;5032854;28;20368;-48
2021/10/31 05:52:20;;;;;;;23.67;21.52;;;;;;;23.80;21.97;94936.31;5033978;28;20053;-48
2021/10/31 05:54:47;;;;;;;22.98;20.88;;;;;;;23.64;22.23;94939.09;5033730;28;20052;-47
2021/10/31 05:57:14;;;;;;;21.77;19.67;;;;;;;23.95;21.99;94933.53;5033564;28;20049;-47
2021/10/31 05:59:41;;;;;;;22.67;20.55;;;;;;;23.84;22.00;94937.91;5033820;28;20049;-49
2021/10/31 06:02:11;;;;;;;22.60;20.35;;;;;;;23.82;22.24;94929.50;5033610;28;20479;-48
2021/10/31 06:04:40;;;;;;;22.02;19.83;;;;;;;23.79;22.18;94940.13;5033671;28;20052;-48
2021/10/31 06:07:07;;;;;;;21.88;19.92;;;;;;;23.97;21.88;94930.50;5033603;28;20049;-50
2021/10/31 06:09:34;;;;;;;25.25;19.60;;;;;;;24.05;21.86;94936.72;5033833;28;20523;-50
2021/10/31 06:12:04;;;;;;;21.17;19.13;;;;;;;23.98;22.14;94938.16;5033447;28;20049;-47
2021/10/31 06:14:33;;;;;;;21.42;19.40;;;;;;;24.09;22.09;94932.97;5033566;28;20060;-49
2021/10/31 06:17:01;;;;;;;21.75;19.55;;;;;;;24.04;22.29;94941.28;5033140;28;20053;-51
2021/10/31 06:19:28;;;;;;;21.27;19.02;;;;;;;24.40;21.65;94937.28;5032518;28;20392;-48
2021/10/31 06:21:55;;;;;;;22.10;19.75;;;;;;;24.31;22.22;94949.38;5031722;28;20053;-47
2021/10/31 06:24:22;;;;;;;20.50;18.45;;;;;;;24.41;22.03;94938.81;5021917;28;20049;-48
2021/10/31 06:26:49;;;;;;;20.70;18.75;;;;;;;24.29;22.40;94945.16;5027612;28;20045;-49
2021/10/31 06:29:16;;;;;;;23.55;19.63;;;;;;;24.51;22.39;94948.91;5033409;28;20046;-48
2021/10/31 06:31:43;;;;;;;21.13;18.85;;;;;;;24.54;22.22;94942.84;5033153;28;20053;-49
2021/10/31 06:34:11;;;;;;;20.25;18.30;;;;;;;24.94;21.56;94944.09;5033617;28;20380;-51
2021/10/31 06:36:38;;;;;;;21.10;18.95;;;;;;;25.73;21.05;94951.91;5032594;28;20060;-48
2021/10/31 06:39:06;;;;;;;20.23;18.15;;;;;;;26.80;19.74;94947.34;5023220;28;20356;-48
2021/10/31 06:41:33;;;;;;;21.13;18.10;;;;;;;27.02;19.54;94953.63;5024310;28;20057;-55
2021/10/31 06:44:00;;;;;;;19.95;17.88;;;;;;;27.19;19.13;94944.13;5021210;28;20048;-49
2021/10/31 06:46:27;;;;;;;22.55;20.30;;;;;;;27.47;19.07;94952.25;5023566;28;20367;-49
2021/10/31 06:48:55;;;;;;;66.32;45.03;;;;;;;27.75;18.81;94950.81;5023599;28;20058;-48
2021/10/31 06:51:22;;;;;;;82.20;48.67;;;;;;;28.22;18.18;94953.13;5028856;28;20045;-51
2021/10/31 06:53:50;;;;;;;46.45;41.83;;;;;;;27.59;18.97;94951.91;5026035;28;20437;-49
2021/10/31 06:56:17;;;;;;;39.72;36.03;;;;;;;27.85;18.98;94945.47;5025374;28;20052;-50
2021/10/31 06:58:44;;;;;;;60.63;44.92;;;;;;;29.09;17.71;94944.56;5025043;28;20053;-57
2021/10/31 07:01:12;;;;;;;53.95;43.70;;;;;;;28.94;17.60;94948.47;5027262;28;20049;-55
2021/10/31 07:03:41;;;;;;;51.33;42.15;;;;;;;29.29;17.20;94944.84;5026006;28;20053;-50
2021/10/31 07:06:26;;;;;;;46.83;40.30;;;;;;;29.49;17.42;94939.78;5025780;28;20060;-67
2021/10/31 07:08:53;;;;;;;43.25;38.65;;;;;;;29.90;17.00;94944.53;5026411;28;20045;-49
2021/10/31 07:11:20;;;;;;;42.80;38.40;;;;;;;29.89;17.12;94941.06;5026342;28;20444;-54
2021/10/31 07:13:47;;;;;;;40.70;36.65;;;;;;;30.15;16.68;94930.88;5025360;28;20337;-49
2021/10/31 07:16:14;;;;;;;52.88;48.58;;;;;;;30.39;16.71;94940.69;5026946;28;20119;-48
2021/10/31 07:18:42;;;;;;;165.32;75.32;;;;;;;30.24;16.64;94940.06;5024955;28;20049;-50
2021/10/31 07:21:09;;;;;;;207.02;77.93;;;;;;;30.29;16.55;94936.94;5026423;28;20056;-48
2021/10/31 07:23:37;;;;;;;216.02;75.88;;;;;;;31.22;15.87;94930.59;5024452;28;20367;-49
2021/10/31 07:26:04;;;;;;;226.98;74.15;;;;;;;31.23;15.73;94932.91;5034074;23;20042;-55
2021/10/31 07:28:31;;;;;;;231.05;71.95;;;;;;;31.59;15.84;94938.59;5030042;28;20056;-48
2021/10/31 07:30:59;;;;;;;115.72;67.80;;;;;;;31.94;15.90;94931.16;5044647;28;20060;-54
2021/10/31 07:33:27;;;;;;;44.55;40.60;;;;;;;33.01;14.34;94930.13;5040816;28;20060;-53
2021/10/31 07:35:54;;;;;;;33.25;30.73;;;;;;;33.16;14.32;94932.56;5044810;28;20052;-72
2021/10/31 07:38:21;;;;;;;13.60;12.10;;;;;;;33.46;13.77;94926.16;5045307;28;20045;-61
2021/10/31 07:40:48;;;;;;;14.98;13.63;;;;;;;33.44;13.98;94925.81;5038451;28;20045;-63
2021/10/31 07:43:15;;;;;;;16.90;15.18;;;;;;;33.37;14.14;94924.03;5035509;28;20336;-47
2021/10/31 07:45:43;;;;;;;17.58;15.82;;;;;;;32.45;14.88;94924.56;5035833;28;20042;-42
2021/10/31 07:48:10;;;;;;;19.50;17.70;;;;;;;32.28;15.02;94933.75;5035115;28;20049;-47
2021/10/31 07:50:38;;;;;;;23.63;21.25;;;;;;;32.71;14.71;94916.75;5016844;28;20050;-53
2021/10/31 07:53:07;;;;;;;23.35;20.92;;;;;;;32.61;14.71;94932.03;5016132;28;20057;-50
2021/10/31 07:55:36;;;;;;;22.65;20.42;;;;;;;32.53;14.76;94919.00;5015919;28;20049;-51
2021/10/31 07:58:05;;;;;;;23.33;21.13;;;;;;;32.60;15.16;94916.19;5034331;28;20056;-50
2021/10/31 08:00:34;;;;;;;23.80;21.27;;;;;;;32.70;14.83;94920.63;5034778;28;20072;-62
2021/10/31 08:03:01;;;;;;;22.80;20.23;;;;;;;32.79;14.66;94915.47;5035851;28;20049;-53
2021/10/31 08:05:28;;;;;;;21.23;19.15;;;;;;;32.84;14.83;94917.72;5035796;28;20495;-54
2021/10/31 08:07:57;;;;;;;20.80;18.70;;;;;;;33.14;14.53;94915.97;5034788;28;20045;-45
2021/10/31 08:10:25;;;;;;;19.33;17.38;;;;;;;33.15;14.58;94917.50;5035071;28;20053;-55
2021/10/31 08:12:52;;;;;;;18.70;16.63;;;;;;;32.99;14.39;94910.81;5035504;28;20471;-44
2021/10/31 08:15:19;;;;;;;17.55;15.70;;;;;;;33.60;13.94;94913.06;5023112;28;20440;-44
2021/10/31 08:17:46;;;;;;;17.10;15.40;;;;;;;33.41;14.26;94911.16;5018259;28;20360;-47
2021/10/31 08:20:14;;;;;;;17.48;15.82;;;;;;;33.47;14.30;94900.56;5035380;28;20547;-47
2021/10/31 08:22:41;;;;;;;21.73;19.50;;;;;;;33.38;14.16;94903.88;5034316;28;20042;-46
2021/10/31 08:25:08;;;;;;;18.80;16.95;;;;;;;33.13;13.91;94906.31;5035147;28;20478;-50
2021/10/31 08:27:36;;;;;;;17.63;15.90;;;;;;;33.23;14.21;94902.59;5034489;28;20053;-46
2021/10/31 08:30:05;;;;;;;17.67;15.88;;;;;;;33.49;13.81;94904.38;5036335;28;20046;-53
2021/10/31 08:32:46;;;;;;;16.95;15.35;;;;;;;33.26;13.89;94899.06;5049259;28;20040;-53
2021/10/31 08:35:13;;;;;;;16.73;15.07;;;;;;;32.76;14.33;94891.91;5026744;28;20056;-53
2021/10/31 08:37:40;;;;;;;21.50;14.90;;;;;;;32.84;14.63;94898.75;5041909;28;20056;-55
2021/10/31 08:40:08;;;;;;;16.10;14.40;;;;;;;32.67;14.59;94897.13;5025694;28;20045;-45
2021/10/31 08:42:36;;;;;;;15.15;13.75;;;;;;;32.45;14.75;94889.38;5038610;28;20046;-48
2021/10/31 08:45:05;;;;;;;16.13;14.20;;;;;;;32.62;14.67;94889.50;5015228;28;20038;-52
2021/10/31 08:47:32;;;;;;;17.98;16.20;;;;;;;32.65;14.65;94885.94;5031127;28;20053;-46
2021/10/31 08:49:59;;;;;;;16.83;14.55;;;;;;;33.04;14.78;94885.94;5034833;28;20060;-55
2021/10/31 08:52:27;;;;;;;25.55;14.55;;;;;;;33.30;14.25;94884.25;5034608;28;20060;-48
2021/10/31 08:54:54;;;;;;;20.52;15.32;;;;;;;33.36;14.42;94879.16;5034778;28;20050;-45
2021/10/31 08:57:21;;;;;;;21.92;16.40;;;;;;;33.47;14.21;94866.13;5033612;28;20060;-46
2021/10/31 08:59:48;;;;;;;19.67;14.75;;;;;;;33.92;14.11;94877.09;5017957;28;20369;-52
2021/10/31 09:02:16;;;;;;;49.33;16.40;;;;;;;33.06;14.25;94872.78;5017500;28;20053;-54
2021/10/31 09:04:43;;;;;;;21.77;14.15;;;;;;;33.59;14.34;94868.19;5034512;28;20060;-63
2021/10/31 09:07:14;;;;;;;18.40;14.35;;;;;;;33.55;13.98;94869.41;5034199;28;20049;-64
2021/10/31 09:09:43;;;;;;;15.68;14.18;;;;;;;33.65;14.43;94873.84;5034558;28;20052;-58
2021/10/31 09:12:11;;;;;;;15.90;14.05;;;;;;;33.27;14.27;94870.78;5033347;28;20041;-65
2021/10/31 09:14:39;;;;;;;14.70;13.25;;;;;;;33.26;14.22;94863.84;5034530;28;20056;-64
2021/10/31 09:17:06;;;;;;;14.98;13.00;;;;;;;33.51;14.14;94861.38;5033977;28;20045;-55
2021/10/31 09:19:34;;;;;;;14.35;11.18;;;;;;;33.20;14.55;94854.69;5021756;28;20440;-54
2021/10/31 09:22:02;;;;;;;13.40;12.00;;;;;;;33.22;14.09;94866.63;4997135;28;20045;-67
2021/10/31 09:24:29;;;;;;;11.98;10.60;;;;;;;32.92;14.09;94856.81;5034335;28;20491;-61
2021/10/31 09:26:56;;;;;;;11.40;9.68;;;;;;;33.24;14.25;94844.53;5034031;28;20476;-65
2021/10/31 09:29:23;;;;;;;11.48;10.40;;;;;;;33.18;14.26;94846.22;5034641;28;20356;-62
2021/10/31 09:31:51;;;;;;;11.45;10.13;;;;;;;33.44;14.18;94845.28;5034909;28;20048;-63
2021/10/31 09:34:18;;;;;;;14.02;12.73;;;;;;;33.57;14.11;94840.72;5034621;28;20056;-61
2021/10/31 09:36:45;;;;;;;12.77;11.43;;;;;;;32.59;14.58;94847.03;5033939;28;20048;-55
2021/10/31 09:39:12;;;;;;;12.38;11.05;;;;;;;32.19;14.97;94849.66;5033784;28;20448;-53
2021/10/31 09:41:39;;;;;;;12.18;11.00;;;;;;;32.42;14.66;94835.34;5034274;28;20045;-66
2021/10/31 09:44:18;;;;;;;12.20;11.10;;;;;;;32.79;14.66;94834.25;5033641;28;20049;-62
2021/10/31 09:46:46;;;;;;;11.73;10.50;;;;;;;32.77;14.73;94828.47;5033903;28;20056;-63
2021/10/31 09:49:14;;;;;;;11.45;10.35;;;;;;;32.99;14.10;94818.75;5033437;28;20060;-53
2021/10/31 09:51:43;;;;;;;10.90;9.90;;;;;;;32.94;14.47;94819.25;5034057;28;20045;-49
2021/10/31 09:54:11;;;;;;;11.63;10.38;;;;;;;32.94;14.29;94821.97;5033499;28;20048;-54
2021/10/31 09:56:39;;;;;;;10.20;9.30;;;;;;;33.18;13.56;94813.72;5033010;28;20372;-50
2021/10/31 09:59:12;;;;;;;11.55;9.27;;;;;;;32.77;13.90;94818.41;5033395;28;20506;-55
2021/10/31 10:04:39;;;;;;;20.60;9.52;;;;;;;32.85;13.60;94800.13;5062433;28;20045;-57
2021/10/31 10:07:08;;;;;;;26.17;17.63;;;;;;;33.07;13.38;94797.72;5033526;28;20045;-51
2021/10/31 10:09:36;;;;;;;17.38;12.75;;;;;;;33.40;13.35;94788.47;5033578;28;20053;-62
2021/10/31 10:12:14;;;;;;;12.30;9.23;;;;;;;32.40;13.71;94805.25;5065709;28;20053;-57
2021/10/31 10:14:42;;;;;;;10.38;8.80;;;;;;;32.12;13.65;94787.59;5033372;28;20060;-58
2021/10/31 10:17:11;;;;;;;9.68;8.23;;;;;;;32.71;13.18;94792.25;5047881;28;20376;-54
2021/10/31 10:19:55;;;;;;;8.77;7.95;;;;;;;32.77;13.11;94785.94;5033288;28;20050;-57
2021/10/31 10:22:24;;;;;;;22.95;10.35;;;;;;;32.88;13.39;94785.75;5033659;28;20053;-53
2021/10/31 10:24:59;;;;;;;14.65;8.73;;;;;;;32.57;13.01;94784.44;5036876;28;20360;-56
2021/10/31 10:27:30;;;;;;;15.45;8.65;;;;;;;32.78;13.38;94778.56;5036232;28;20349;-54
2021/10/31 10:29:58;;;;;;;13.18;8.07;;;;;;;32.39;13.48;94784.78;5037461;28;20053;-61
2021/10/31 10:32:27;;;;;;;13.38;8.45;;;;;;;32.09;14.30;94774.91;5018580;28;20050;-56
2021/10/31 10:34:57;;;;;;;8.00;7.30;;;;;;;32.47;13.67;94768.00;5017522;28;20046;-60
2021/10/31 10:37:28;;;;;;;8.40;7.55;;;;;;;32.58;13.49;94767.78;5027773;28;20049;-56
2021/10/31 10:39:57;;;;;;;;;;;;;;;32.15;14.15;94773.22;5020416;28;20053;-46
2021/10/31 10:42:36;;;;;;;9.15;8.10;;;;;;;32.51;13.77;94765.97;5017296;28;19924;-55
2021/10/31 10:45:09;;;;;;;9.73;8.82;;;;;;;32.45;13.93;94769.59;5017841;28;20045;-53
2021/10/31 10:47:43;;;;;;;9.88;8.52;;;;;;;32.44;13.98;94762.66;5028814;28;20045;-56
2021/10/31 10:50:25;;;;;;;9.35;8.40;;;;;;;32.84;13.74;94763.41;5036854;28;20053;-54
2021/10/31 10:52:53;;;;;;;8.13;7.32;;;;;;;32.58;13.59;94753.50;5043694;28;20049;-52
2021/10/31 10:55:24;;;;;;;14.10;7.22;;;;;;;32.38;13.97;94753.50;5042023;28;20056;-50
2021/10/31 10:57:57;;;;;;;18.60;7.38;;;;;;;32.62;13.43;94743.34;5043606;28;20453;-52
2021/10/31 11:00:27;;;;;;;10.30;7.47;;;;;;;32.60;13.72;94745.72;5043652;28;20051;-47
2021/10/31 11:03:17;;;;;;;14.60;7.93;;;;;;;32.73;13.23;94733.06;5044922;28;20079;-56
2021/10/31 11:05:47;;;;;;;9.73;7.63;;;;;;;31.98;13.22;94742.63;5045815;28;20040;-52
2021/10/31 11:08:17;;;;;;;9.20;6.97;;;;;;;31.50;13.56;94734.97;5029607;28;20051;-52
2021/10/31 11:10:46;;;;;;;9.10;7.80;;;;;;;31.38;14.20;94732.84;5015375;28;20053;-53
2021/10/31 11:13:14;;;;;;;8.05;7.30;;;;;;;31.20;14.11;94733.88;5016595;28;20049;-53
2021/10/31 11:15:41;;;;;;;8.02;7.22;;;;;;;30.76;14.24;94731.44;5016427;28;20049;-53
2021/10/31 11:18:10;;;;;;;8.73;7.15;;;;;;;30.81;14.45;94728.28;5031263;28;20052;-64
2021/10/31 11:20:41;;;;;;;12.77;8.10;;;;;;;31.94;14.50;94725.72;5036595;28;20048;-56
2021/10/31 11:23:11;;;;;;;13.02;8.27;;;;;;;32.14;14.36;94721.09;5036538;28;20053;-48
2021/10/31 11:25:40;;;;;;;8.55;7.50;;;;;;;32.14;14.13;94714.91;5036223;28;20048;-49
2021/10/31 11:28:12;;;;;;;9.02;7.30;;;;;;;32.05;14.31;94717.44;4999773;28;20054;-57
2021/10/31 11:30:40;;;;;;;8.88;7.63;;;;;;;32.24;14.06;94721.28;4996689;28;20080;-60
2021/10/31 11:33:09;;;;;;;8.40;7.05;;;;;;;31.79;13.97;94709.00;4997057;28;20046;-54